createdAt,value
2023-05-10T00:02:27.339Z,65.58
2023-05-10T00:04:54.663Z,65.83
2023-05-10T00:07:22.118Z,65.99
2023-05-10T00:09:49.496Z,65.83
2023-05-10T00:12:16.822Z,66.25
2023-05-10T00:14:44.155Z,66.16
2023-05-10T00:17:12.979Z,67.05
2023-05-10T00:19:40.308Z,67.07
2023-05-10T00:22:07.590Z,67.33
2023-05-10T00:24:34.875Z,67.29
2023-05-10T00:27:02.195Z,66.70
2023-05-10T00:29:29.652Z,67.06
2023-05-10T00:31:56.974Z,67.32
2023-05-10T00:34:25.728Z,67.04
2023-05-10T00:36:53.078Z,66.84
2023-05-10T00:39:20.533Z,66.06
2023-05-10T00:41:47.826Z,66.16
2023-05-10T00:44:15.343Z,65.51
2023-05-10T00:46:43.051Z,65.16
2023-05-10T00:49:10.653Z,64.20
2023-05-10T00:51:39.346Z,64.12
2023-05-10T00:54:06.704Z,63.09
2023-05-10T00:56:34.695Z,62.81
2023-05-10T00:59:02.242Z,62.64
2023-05-10T01:01:30.466Z,63.00
2023-05-10T01:03:58.316Z,62.28
2023-05-10T01:06:25.664Z,61.96
2023-05-10T01:08:54.636Z,61.53
2023-05-10T01:11:21.953Z,61.75
2023-05-10T01:13:56.358Z,61.42
2023-05-10T01:16:24.837Z,61.34
2023-05-10T01:18:53.182Z,60.94
2023-05-10T01:21:28.712Z,61.37
2023-05-10T01:24:18.881Z,61.21
2023-05-10T01:27:46.388Z,61.45
2023-05-10T01:30:48.361Z,61.41
2023-05-10T01:33:23.378Z,60.81
2023-05-10T01:35:57.013Z,60.88
2023-05-10T01:38:33.920Z,60.70
2023-05-10T01:41:12.365Z,61.37
2023-05-10T01:43:48.045Z,61.12
2023-05-10T01:46:21.791Z,61.58
2023-05-10T01:48:55.937Z,60.98
2023-05-10T01:51:26.924Z,61.20
2023-05-10T01:54:02.571Z,60.81
2023-05-10T01:56:33.281Z,61.01
2023-05-10T01:59:04.463Z,61.55
2023-05-10T02:01:32.890Z,61.59
2023-05-10T02:04:03.873Z,62.03
2023-05-10T02:06:32.977Z,62.12
2023-05-10T02:09:02.399Z,62.41
2023-05-10T02:11:30.652Z,62.92
2023-05-10T02:13:59.688Z,62.93
2023-05-10T02:16:28.573Z,63.10
2023-05-10T02:18:58.183Z,63.80
2023-05-10T02:21:28.891Z,63.22
2023-05-10T02:23:57.551Z,63.41
2023-05-10T02:26:26.337Z,63.04
2023-05-10T02:28:55.453Z,62.83
2023-05-10T02:31:23.903Z,63.39
2023-05-10T02:33:52.077Z,63.55
2023-05-10T02:36:21.935Z,64.27
2023-05-10T02:38:52.731Z,64.85
2023-05-10T02:41:21.611Z,65.13
2023-05-10T02:43:51.623Z,65.35
2023-05-10T02:46:19.391Z,65.79
2023-05-10T02:48:46.833Z,65.39
2023-05-10T02:51:17.445Z,65.87
2023-05-10T02:53:46.941Z,66.15
2023-05-10T02:56:20.996Z,66.31
2023-05-10T02:58:48.280Z,66.31
2023-05-10T03:01:15.661Z,66.63
2023-05-10T03:03:43.088Z,66.88
2023-05-10T03:06:10.523Z,66.88
2023-05-10T03:08:38.042Z,67.27
2023-05-10T03:11:21.473Z,67.28
2023-05-10T03:14:05.260Z,67.23
2023-05-10T03:16:38.326Z,66.92
2023-05-10T03:19:17.057Z,66.81
2023-05-10T03:21:50.696Z,67.07
2023-05-10T03:24:21.789Z,67.84
2023-05-10T03:26:52.847Z,67.61
2023-05-10T03:29:22.847Z,67.16
2023-05-10T03:31:50.300Z,67.24
2023-05-10T03:34:17.729Z,67.18
2023-05-10T03:36:45.163Z,67.03
2023-05-10T03:39:12.467Z,67.80
2023-05-10T03:41:39.831Z,67.18
2023-05-10T03:44:08.514Z,67.76
2023-05-10T03:46:36.067Z,66.63
2023-05-10T03:49:03.455Z,67.03
2023-05-10T03:51:30.838Z,67.17
2023-05-10T03:53:58.249Z,67.20
2023-05-10T03:56:25.869Z,67.18
2023-05-10T03:58:53.170Z,67.07
2023-05-10T04:01:22.110Z,66.84
2023-05-10T04:03:49.483Z,66.37
2023-05-10T04:06:17.087Z,66.76
2023-05-10T04:08:44.517Z,67.34
2023-05-10T04:11:12.956Z,67.45
2023-05-10T04:13:40.305Z,67.56
2023-05-10T04:16:07.703Z,66.68
2023-05-10T04:18:36.389Z,66.13
2023-05-10T04:21:04.054Z,66.16
2023-05-10T04:23:31.500Z,65.70
2023-05-10T04:26:01.816Z,65.57
2023-05-10T04:28:29.183Z,65.60
2023-05-10T04:31:02.344Z,65.59
2023-05-10T04:33:29.696Z,65.60
2023-05-10T04:35:58.574Z,65.51
2023-05-10T04:38:25.986Z,65.62
2023-05-10T04:40:53.349Z,65.72
2023-05-10T04:43:20.767Z,64.91
2023-05-10T04:45:48.092Z,64.80
2023-05-10T04:48:15.435Z,64.45
2023-05-10T04:50:44.022Z,64.26
2023-05-10T04:53:14.601Z,63.75
2023-05-10T04:55:43.654Z,64.14
2023-05-10T04:58:11.139Z,64.02
2023-05-10T05:00:38.462Z,64.47
2023-05-10T05:03:05.930Z,64.25
2023-05-10T05:05:33.331Z,64.49
2023-05-10T05:08:00.724Z,64.00
2023-05-10T05:10:29.398Z,64.25
2023-05-10T05:12:56.825Z,63.81
2023-05-10T05:15:24.216Z,63.04
2023-05-10T05:17:51.616Z,63.41
2023-05-10T05:20:19.272Z,63.65
2023-05-10T05:22:46.964Z,63.00
2023-05-10T05:25:14.334Z,62.41
2023-05-10T05:27:43.192Z,62.79
2023-05-10T05:30:11.380Z,63.42
2023-05-10T05:32:39.439Z,63.57
2023-05-10T05:35:07.341Z,64.60
2023-05-10T05:37:34.968Z,64.95
2023-05-10T05:40:02.410Z,64.59
2023-05-10T05:42:29.704Z,64.04
2023-05-10T05:44:58.506Z,64.37
2023-05-10T05:47:25.960Z,64.66
2023-05-10T05:49:53.305Z,64.60
2023-05-10T05:52:20.631Z,64.46
2023-05-10T05:54:47.974Z,63.37
2023-05-10T05:57:15.292Z,63.01
2023-05-10T05:59:42.784Z,62.81
2023-05-10T06:02:11.983Z,62.91
2023-05-10T06:04:41.537Z,62.99
2023-05-10T06:07:10.214Z,63.05
2023-05-10T06:09:37.497Z,61.67
2023-05-10T06:12:05.242Z,61.29
2023-05-10T06:14:32.545Z,60.50
2023-05-10T06:16:59.981Z,59.50
2023-05-10T06:19:28.981Z,57.54
2023-05-10T06:21:56.238Z,56.34
2023-05-10T06:24:23.690Z,57.39
2023-05-10T06:26:51.189Z,54.26
2023-05-10T06:29:18.609Z,54.33
2023-05-10T06:31:46.151Z,52.62
2023-05-10T06:34:13.482Z,51.92
2023-05-10T06:36:42.173Z,48.20
2023-05-10T06:39:09.489Z,49.01
2023-05-10T06:41:36.791Z,49.12
2023-05-10T06:44:04.381Z,50.98
2023-05-10T06:46:31.842Z,52.06
2023-05-10T06:48:59.232Z,51.79
2023-05-10T06:51:26.718Z,52.23
2023-05-10T06:53:55.396Z,51.81
2023-05-10T06:56:22.864Z,50.35
2023-05-10T06:58:50.214Z,50.91
2023-05-10T07:01:17.822Z,50.75
2023-05-10T07:03:45.227Z,50.92
2023-05-10T07:06:21.753Z,51.49
2023-05-10T07:08:59.763Z,54.59
2023-05-10T07:11:27.249Z,54.11
2023-05-10T07:13:54.693Z,54.89
2023-05-10T07:16:22.038Z,54.49
2023-05-10T07:18:49.380Z,53.69
2023-05-10T07:21:16.960Z,53.11
2023-05-10T07:23:45.204Z,51.51
2023-05-10T07:26:14.000Z,50.74
2023-05-10T07:28:41.266Z,50.71
2023-05-10T07:31:17.702Z,50.13
2023-05-10T07:33:45.199Z,48.24
2023-05-10T07:36:12.546Z,45.27
2023-05-10T07:38:41.020Z,44.35
2023-05-10T07:41:08.620Z,43.71
2023-05-10T07:43:37.490Z,43.57
2023-05-10T07:46:05.814Z,44.31
2023-05-10T07:48:33.119Z,45.06
2023-05-10T07:51:00.509Z,46.36
2023-05-10T07:53:27.909Z,45.87
2023-05-10T07:55:58.504Z,43.58
2023-05-10T07:58:26.286Z,45.11
2023-05-10T08:00:55.310Z,43.46
2023-05-10T08:03:22.681Z,43.48
2023-05-10T08:05:50.065Z,42.32
2023-05-10T08:08:17.493Z,42.78
2023-05-10T08:10:45.226Z,44.78
2023-05-10T08:13:12.631Z,43.39
2023-05-10T08:15:40.026Z,45.01
2023-05-10T08:18:08.931Z,44.78
2023-05-10T08:20:36.476Z,46.78
2023-05-10T08:23:03.895Z,47.76
2023-05-10T08:25:32.064Z,47.80
2023-05-10T08:27:59.405Z,48.05
2023-05-10T08:30:26.724Z,48.34
2023-05-10T08:32:54.103Z,48.58
2023-05-10T08:35:22.846Z,50.09
2023-05-10T08:37:50.167Z,48.63
2023-05-10T08:40:20.041Z,49.99
2023-05-10T08:42:59.632Z,50.29
2023-05-10T08:45:32.908Z,49.90
2023-05-10T08:48:02.361Z,49.23
2023-05-10T08:50:32.238Z,50.22
2023-05-10T08:53:02.613Z,49.11
2023-05-10T08:55:30.065Z,48.51
2023-05-10T08:57:57.550Z,48.35
2023-05-10T09:00:25.069Z,48.74
2023-05-10T09:02:52.856Z,48.72
2023-05-10T09:05:20.363Z,47.84
2023-05-10T09:07:49.347Z,46.27
2023-05-10T09:10:17.695Z,48.40
2023-05-10T09:12:49.348Z,44.77
2023-05-10T09:15:20.243Z,45.95
2023-05-10T09:17:50.194Z,45.82
2023-05-10T09:20:17.880Z,46.36
2023-05-10T09:22:45.626Z,47.78
2023-05-10T09:25:16.005Z,48.02
2023-05-10T09:27:46.354Z,47.70
2023-05-10T09:30:17.152Z,47.92
2023-05-10T09:32:47.007Z,49.53
2023-05-10T09:35:16.779Z,49.74
2023-05-10T09:37:46.122Z,48.02
2023-05-10T09:40:16.396Z,49.18
2023-05-10T09:42:53.618Z,48.30
2023-05-10T09:45:21.707Z,49.30
2023-05-10T09:47:49.244Z,47.82
2023-05-10T09:50:16.680Z,45.91
2023-05-10T09:52:49.216Z,45.46
2023-05-10T09:55:19.201Z,45.55
2023-05-10T09:57:46.981Z,46.42
2023-05-10T10:00:18.928Z,45.76
2023-05-10T10:02:48.399Z,45.30
2023-05-10T10:05:16.522Z,46.23
2023-05-10T10:07:44.065Z,42.57
2023-05-10T10:10:11.545Z,44.73
2023-05-10T10:12:41.052Z,45.41
2023-05-10T10:15:09.735Z,44.76
2023-05-10T10:17:38.161Z,42.63
2023-05-10T10:20:06.573Z,41.96
2023-05-10T10:22:34.010Z,42.99
2023-05-10T10:25:01.526Z,42.80
2023-05-10T10:27:42.589Z,41.87
2023-05-10T10:30:24.781Z,40.08
2023-05-10T10:33:27.260Z,39.76
2023-05-10T10:35:58.975Z,40.38
2023-05-10T10:38:26.480Z,41.31
2023-05-10T10:41:04.077Z,40.80
2023-05-10T10:43:31.472Z,41.20
2023-05-10T10:46:16.027Z,40.78
2023-05-10T10:48:48.624Z,38.91
2023-05-10T10:51:16.107Z,41.05
2023-05-10T10:53:44.516Z,42.53
2023-05-10T10:56:13.625Z,43.35
2023-05-10T10:58:41.829Z,45.30
2023-05-10T11:01:15.471Z,46.97
2023-05-10T11:04:16.182Z,47.97
2023-05-10T11:06:43.602Z,49.11
2023-05-10T11:09:12.158Z,47.35
2023-05-10T11:11:53.490Z,46.99
2023-05-10T11:14:22.425Z,45.48
2023-05-10T11:16:51.299Z,44.54
2023-05-10T11:19:19.158Z,45.73
2023-05-10T11:21:47.992Z,45.80
2023-05-10T11:24:16.868Z,46.33
2023-05-10T11:26:44.440Z,46.22
2023-05-10T11:29:13.880Z,47.28
2023-05-10T11:31:44.898Z,47.50
2023-05-10T11:34:24.836Z,51.96
2023-05-10T11:36:53.347Z,55.44
2023-05-10T11:39:20.826Z,57.26
2023-05-10T11:41:49.957Z,59.30
2023-05-10T11:44:17.523Z,57.13
2023-05-10T11:46:45.078Z,55.59
2023-05-10T11:49:14.008Z,52.36
2023-05-10T11:51:41.317Z,52.64
2023-05-10T11:54:09.926Z,49.86
2023-05-10T11:56:37.583Z,46.53
2023-05-10T11:59:05.126Z,43.94
2023-05-10T12:01:32.677Z,45.26
2023-05-10T12:04:00.479Z,45.83
2023-05-10T12:06:31.292Z,49.57
2023-05-10T12:08:59.500Z,45.77
2023-05-10T12:11:27.841Z,46.13
2023-05-10T12:13:56.117Z,43.69
2023-05-10T12:16:25.154Z,42.79
2023-05-10T12:18:54.646Z,50.81
2023-05-10T12:21:22.397Z,48.44
2023-05-10T12:23:52.813Z,53.37
2023-05-10T12:26:23.158Z,53.43
2023-05-10T12:28:50.445Z,54.97
2023-05-10T12:31:17.827Z,56.36
2023-05-10T12:33:46.228Z,54.87
2023-05-10T12:36:15.706Z,52.69
2023-05-10T12:38:44.241Z,53.07
2023-05-10T12:41:14.345Z,52.88
2023-05-10T12:43:42.146Z,52.20
2023-05-10T12:46:10.728Z,53.38
2023-05-10T12:48:39.338Z,52.54
2023-05-10T12:51:07.597Z,52.23
2023-05-10T12:53:35.025Z,49.91
2023-05-10T12:56:02.393Z,48.63
2023-05-10T12:58:35.950Z,49.12
2023-05-10T13:01:04.164Z,49.23
2023-05-10T13:03:31.589Z,47.46
2023-05-10T13:05:58.871Z,50.14
2023-05-10T13:08:26.197Z,51.45
2023-05-10T13:10:53.608Z,52.05
2023-05-10T13:13:20.959Z,50.60
2023-05-10T13:15:49.610Z,50.03
2023-05-10T13:18:16.945Z,49.13
2023-05-10T13:20:44.332Z,51.02
2023-05-10T13:23:11.598Z,51.59
2023-05-10T13:25:38.941Z,48.20
2023-05-10T13:28:06.220Z,48.55
2023-05-10T13:30:33.593Z,48.63
2023-05-10T13:33:02.371Z,48.79
2023-05-10T13:35:29.886Z,50.33
2023-05-10T13:37:57.366Z,50.67
2023-05-10T13:40:24.613Z,50.49
2023-05-10T13:42:51.867Z,48.67
2023-05-10T13:45:19.426Z,49.59
2023-05-10T13:47:46.873Z,49.37
2023-05-10T13:50:15.698Z,50.90
2023-05-10T13:52:43.066Z,48.45
2023-05-10T13:55:10.330Z,49.77
2023-05-10T13:57:37.701Z,50.42
2023-05-10T14:00:06.330Z,52.16
2023-05-10T14:02:33.775Z,49.79
2023-05-10T14:05:01.129Z,49.15
2023-05-10T14:07:29.786Z,48.00
2023-05-10T14:09:57.186Z,49.31
2023-05-10T14:12:24.429Z,49.54
2023-05-10T14:14:51.735Z,50.08
2023-05-10T14:17:19.003Z,49.23
2023-05-10T14:19:46.309Z,49.20
2023-05-10T14:22:13.800Z,49.05
2023-05-10T14:24:42.411Z,47.86
2023-05-10T14:27:09.677Z,48.75
2023-05-10T14:29:37.151Z,47.16
2023-05-10T14:32:04.552Z,47.00
2023-05-10T14:34:31.825Z,45.61
2023-05-10T14:36:59.119Z,47.03
2023-05-10T14:39:26.385Z,46.49
2023-05-10T14:41:55.064Z,46.83
2023-05-10T14:44:22.295Z,46.55
2023-05-10T14:46:49.597Z,45.79
2023-05-10T14:49:16.853Z,44.08
2023-05-10T14:51:44.097Z,41.79
2023-05-10T14:54:11.379Z,40.41
2023-05-10T14:56:38.633Z,41.17
2023-05-10T14:59:07.249Z,41.26
2023-05-10T15:01:35.366Z,41.56
2023-05-10T15:04:03.250Z,41.09
2023-05-10T15:06:34.620Z,43.10
2023-05-10T15:09:03.264Z,41.31
2023-05-10T15:11:30.543Z,41.55
2023-05-10T15:13:57.833Z,39.24
2023-05-10T15:16:26.678Z,39.88
2023-05-10T15:18:54.146Z,40.04
2023-05-10T15:21:21.428Z,39.97
2023-05-10T15:23:48.665Z,40.74
2023-05-10T15:26:15.936Z,42.43
2023-05-10T15:28:43.182Z,44.48
2023-05-10T15:31:10.427Z,46.41
2023-05-10T15:33:39.544Z,46.18
2023-05-10T15:36:07.110Z,47.81
2023-05-10T15:38:34.379Z,47.29
2023-05-10T15:41:01.713Z,44.75
2023-05-10T15:43:29.191Z,43.38
2023-05-10T15:45:56.458Z,41.52
2023-05-10T15:48:23.868Z,40.63
2023-05-10T15:50:52.503Z,40.37
2023-05-10T15:53:19.851Z,40.90
2023-05-10T15:55:47.176Z,42.38
2023-05-10T15:58:14.504Z,42.00
2023-05-10T16:00:41.946Z,40.89
2023-05-10T16:03:09.455Z,40.65
2023-05-10T16:05:36.819Z,40.87
2023-05-10T16:08:05.775Z,40.39
2023-05-10T16:10:33.233Z,40.97
2023-05-10T16:13:00.678Z,41.12
2023-05-10T16:15:28.200Z,39.43
2023-05-10T16:17:55.667Z,41.02
2023-05-10T16:20:23.016Z,41.94
2023-05-10T16:22:50.712Z,42.00
2023-05-10T16:25:19.762Z,42.63
2023-05-10T16:27:47.432Z,43.12
2023-05-10T16:30:14.857Z,42.63
2023-05-10T16:32:42.141Z,42.02
2023-05-10T16:35:09.898Z,41.58
2023-05-10T16:37:37.444Z,39.91
2023-05-10T16:40:06.130Z,40.31
2023-05-10T16:42:35.011Z,40.28
2023-05-10T16:45:02.464Z,39.67
2023-05-10T16:47:29.780Z,40.35
2023-05-10T16:49:57.086Z,40.35
2023-05-10T16:52:24.455Z,40.40
2023-05-10T16:54:51.793Z,40.73
2023-05-10T16:57:19.063Z,41.74
2023-05-10T16:59:47.964Z,41.17
2023-05-10T17:02:15.548Z,41.78
2023-05-10T17:04:42.992Z,42.84
2023-05-10T17:07:10.639Z,43.60
2023-05-10T17:09:38.136Z,43.31
2023-05-10T17:12:05.833Z,44.13
2023-05-10T17:14:33.143Z,44.75
2023-05-10T17:17:02.118Z,45.08
2023-05-10T17:19:30.254Z,47.01
2023-05-10T17:21:57.601Z,47.12
2023-05-10T17:24:25.218Z,47.98
2023-05-10T17:26:53.752Z,48.08
2023-05-10T17:29:22.760Z,47.87
2023-05-10T17:31:52.731Z,48.18
2023-05-10T17:34:23.535Z,48.13
2023-05-10T17:36:50.883Z,47.30
2023-05-10T17:39:18.192Z,47.55
2023-05-10T17:42:04.058Z,47.59
2023-05-10T17:44:51.684Z,48.38
2023-05-10T17:47:39.322Z,48.16
2023-05-10T17:50:28.325Z,48.02
2023-05-10T17:53:15.984Z,47.72
2023-05-10T17:56:03.698Z,47.75
2023-05-10T17:58:51.316Z,48.12
2023-05-10T18:01:38.991Z,47.34
2023-05-10T18:04:26.717Z,47.16
2023-05-10T18:07:15.696Z,47.10
2023-05-10T18:10:03.394Z,46.89
2023-05-10T18:12:50.986Z,46.95
2023-05-10T18:15:41.768Z,46.61
2023-05-10T18:18:29.372Z,46.62
2023-05-10T18:21:17.478Z,47.12
2023-05-10T18:24:06.712Z,47.99
2023-05-10T18:26:54.410Z,48.15
2023-05-10T18:29:42.024Z,47.75
2023-05-10T18:32:29.667Z,48.65
2023-05-10T18:35:17.322Z,48.87
2023-05-10T18:38:04.928Z,48.43
2023-05-10T18:40:53.902Z,49.12
2023-05-10T18:43:41.557Z,49.56
2023-05-10T18:46:29.121Z,48.82
2023-05-10T18:49:16.785Z,49.42
2023-05-10T18:52:04.566Z,49.76
2023-05-10T18:54:52.260Z,49.28
2023-05-10T18:57:41.295Z,49.56
2023-05-10T19:00:29.130Z,49.30
2023-05-10T19:03:16.710Z,49.42
2023-05-10T19:06:04.360Z,49.89
2023-05-10T19:08:52.307Z,50.38
2023-05-10T19:11:41.065Z,50.96
2023-05-10T19:14:30.035Z,51.15
2023-05-10T19:17:17.690Z,50.76
2023-05-10T19:20:06.246Z,51.39
2023-05-10T19:23:09.015Z,51.22
2023-05-10T19:25:59.159Z,51.18
2023-05-10T19:28:46.733Z,51.41
2023-05-10T19:31:35.933Z,51.86
2023-05-10T19:34:23.926Z,52.33
2023-05-10T19:37:11.634Z,52.83
2023-05-10T19:39:59.283Z,53.07
2023-05-10T19:42:47.025Z,53.33
2023-05-10T19:45:35.065Z,53.10
2023-05-10T19:48:24.143Z,53.46
2023-05-10T19:51:12.404Z,53.21
2023-05-10T19:54:00.240Z,53.93
2023-05-10T19:56:47.850Z,54.00
2023-05-10T19:59:35.427Z,54.59
2023-05-10T20:02:23.128Z,54.86
2023-05-10T20:05:12.208Z,55.22
2023-05-10T20:07:59.827Z,55.83
2023-05-10T20:10:47.439Z,55.92
2023-05-10T20:13:35.030Z,55.50
2023-05-10T20:16:25.069Z,54.63
2023-05-10T20:19:14.339Z,54.01
2023-05-10T20:22:03.376Z,54.54
2023-05-10T20:24:51.489Z,55.45
2023-05-10T20:27:39.192Z,57.20
2023-05-10T20:30:26.923Z,56.74
2023-05-10T20:33:14.505Z,57.53
2023-05-10T20:36:02.065Z,57.19
2023-05-10T20:38:51.185Z,56.24
2023-05-10T20:41:38.734Z,56.78
2023-05-10T20:44:26.328Z,56.19
2023-05-10T20:47:14.900Z,56.10
2023-05-10T20:50:02.536Z,55.84
2023-05-10T20:52:50.150Z,55.45
2023-05-10T20:55:39.073Z,55.92
2023-05-10T20:58:26.934Z,57.08
2023-05-10T21:01:14.616Z,56.66
2023-05-10T21:04:02.661Z,56.65
2023-05-10T21:06:50.250Z,57.13
2023-05-10T21:09:38.221Z,57.28
2023-05-10T21:12:27.265Z,57.72
2023-05-10T21:15:14.898Z,57.87
2023-05-10T21:18:02.611Z,58.10
2023-05-10T21:20:50.300Z,59.54
2023-05-10T21:23:37.894Z,59.70
2023-05-10T21:26:25.500Z,59.73
2023-05-10T21:29:14.856Z,59.46
2023-05-10T21:32:02.608Z,58.97
2023-05-10T21:34:50.324Z,58.89
2023-05-10T21:37:37.945Z,59.62
2023-05-10T21:40:25.553Z,59.04
2023-05-10T21:43:13.176Z,59.55
2023-05-10T21:46:02.191Z,59.79
2023-05-10T21:48:49.883Z,58.72
2023-05-10T21:51:37.481Z,59.34
2023-05-10T21:54:25.154Z,59.53
2023-05-10T21:57:12.731Z,59.68
2023-05-10T22:00:00.384Z,60.69
2023-05-10T22:02:49.529Z,59.95
2023-05-10T22:05:37.221Z,59.40
2023-05-10T22:08:24.804Z,59.93
2023-05-10T22:11:12.540Z,59.49
2023-05-10T22:14:00.153Z,59.91
2023-05-10T22:16:47.837Z,59.89
2023-05-10T22:19:36.781Z,60.30
2023-05-10T22:22:24.391Z,60.77
2023-05-10T22:25:12.037Z,60.90
2023-05-10T22:27:59.605Z,60.62
2023-05-10T22:30:47.518Z,60.90
2023-05-10T22:33:35.196Z,61.05
2023-05-10T22:36:24.109Z,61.21
2023-05-10T22:39:11.733Z,60.70
2023-05-10T22:41:59.303Z,60.24
2023-05-10T22:44:46.970Z,61.06
2023-05-10T22:47:34.675Z,60.85
2023-05-10T22:50:22.351Z,61.35
